Flight Track Log - Related Links

Times and Time Zones

All times are in EDT time to prevent confusion due to time zone crossing. See the AWE1454 flight status page for this flight to view local times or setup timezone preferences in your user account.

Time Position Orientation Groundspeed Altitude Reporting Facility
EDT Latitude Longitude Course Direction KTS MPH feet Rate Location/Type
Tue 12:59:55 PM 33.6456 -84.3756 53° Northeast 441 507 2,500  Level Atlanta Center
Tue 01:00:44 PM 33.6667 -84.3167 67° East 224 258 3,800 2,433 Climbing Atlanta TRACON
Tue 01:01:00 PM 33.8398 -84.1649 73° East  Level Estimated
Tue 01:02:00 PM 33.9073 -84.0769 54° Northeast  Level Estimated
Tue 01:02:55 PM 33.7003 -84.1361 77° East 306 352 9,800  Level Atlanta Center
Tue 01:03:00 PM 33.8910 -83.9587 99° East  Level FlightAware Approximate
Tue 01:03:55 PM 33.7358 -84.0389 66° East 306 352 11,400  Level Atlanta Center
Tue 01:04:00 PM 33.9591 -83.8712 48° Northeast  Level Estimated
Tue 01:04:55 PM 33.7900 -83.9439 56° Northeast 329 379 13,900  Level Atlanta Center
Tue 01:05:00 PM 34.0271 -83.7836 53° Northeast  Level Estimated
Tue 01:05:55 PM 33.8525 -83.8436 53° Northeast 359 413 16,300  Level Atlanta Center
Tue 01:06:55 PM 33.9128 -83.7433 54° Northeast 370 426 18,600 2,150 Climbing Atlanta Center
Tue 01:07:55 PM 33.9772 -83.6406 53° Northeast 375 432 20,600 1,900 Climbing Atlanta Center
Tue 01:08:55 PM 34.0458 -83.5347 52° Northeast 393 452 22,400 1,600 Climbing Atlanta Center
Tue 01:09:55 PM 34.1081 -83.4392 52° Northeast 393 452 23,800 1,450 Climbing Atlanta Center
Tue 01:10:55 PM 34.1742 -83.3256 55° Northeast 408 470 25,300 1,400 Climbing Atlanta Center
Tue 01:11:55 PM 34.2486 -83.2094 52° Northeast 422 486 26,600 1,350 Climbing Atlanta Center
Tue 01:12:55 PM 34.3208 -83.0906 54° Northeast 437 503 28,000 1,550 Climbing Atlanta Center
Tue 01:13:55 PM 34.3969 -82.9714 52° Northeast 442 509 29,700 1,550 Climbing Atlanta Center
Tue 01:14:55 PM 34.4689 -82.8569 53° Northeast 432 497 31,100 1,300 Climbing Atlanta Center
Tue 01:15:55 PM 34.5386 -82.7375 55° Northeast 432 497 32,300 1,100 Climbing Atlanta Center
Tue 01:16:55 PM 34.6167 -82.6078 54° Northeast 432 497 33,300 1,150 Climbing Atlanta Center
Tue 01:17:55 PM 34.6842 -82.5056 51° Northeast 432 497 34,600 1,100 Climbing Atlanta Center
Tue 01:18:55 PM 34.7536 -82.3906 54° Northeast 422 486 35,500 800 Climbing Atlanta Center
Tue 01:19:55 PM 34.8231 -82.2753 54° Northeast 422 486 36,200 600 Climbing Atlanta Center
Tue 01:20:55 PM 34.8944 -82.1622 52° Northeast 422 486 36,700 400 Climbing Atlanta Center
Tue 01:21:55 PM 34.9675 -82.0414 54° Northeast 422 486 37,000 150 Climbing Atlanta Center
Tue 01:22:55 PM 35.0467 -81.9078 54° Northeast 432 497 37,000  Level Atlanta Center
Tue 01:23:55 PM 35.1153 -81.7764 57° Northeast 444 511 37,000  Level Atlanta Center
Tue 01:24:55 PM 35.1839 -81.6475 57° Northeast 449 517 37,000  Level Atlanta Center
Tue 01:25:55 PM 35.2522 -81.5208 57° Northeast 449 517 37,000  Level Atlanta Center
Tue 01:26:55 PM 35.3142 -81.3942 59° Northeast 444 511 37,000  Level Atlanta Center
Tue 01:27:55 PM 35.3822 -81.2647 57° Northeast 444 511 37,000  Level Atlanta Center
Tue 01:28:55 PM 35.4461 -81.1350 59° Northeast 444 511 37,000  Level Atlanta Center
Tue 01:29:55 PM 35.5158 -81.0025 57° Northeast 450 518 37,000  Level Atlanta Center
Tue 01:30:55 PM 35.5836 -80.8747 57° Northeast 450 518 37,000  Level Atlanta Center
Tue 01:31:55 PM 35.6511 -80.7469 57° Northeast 444 511 37,000  Level Atlanta Center
Tue 01:32:55 PM 35.7186 -80.6164 57° Northeast 444 511 37,000  Level Atlanta Center
Tue 01:33:55 PM 35.7836 -80.4883 58° Northeast 449 517 37,000  Level Atlanta Center
Tue 01:36:01 PM 35.9161 -80.2264 58° Northeast 442 509 37,000  Level Washington Center
Tue 01:37:02 PM 35.9836 -80.0969 57° Northeast 443 510 37,000  Level Washington Center
Tue 01:38:01 PM 36.0578 -79.9572 57° Northeast 437 503 37,000  Level Washington Center
Tue 01:39:02 PM 36.1289 -79.8353 54° Northeast 437 503 37,000  Level Washington Center
Tue 01:40:03 PM 36.2000 -79.7053 56° Northeast 452 520 37,000  Level Washington Center
Tue 01:41:01 PM 36.2644 -79.5900 55° Northeast 446 513 37,000  Level Washington Center
Tue 01:42:02 PM 36.3422 -79.4522 55° Northeast 446 513 37,000  Level Washington Center
Tue 01:43:03 PM 36.4064 -79.3367 55° Northeast 446 513 37,000  Level Washington Center
Tue 01:44:03 PM 36.4769 -79.2083 56° Northeast 446 513 37,000  Level Washington Center
Tue 01:45:01 PM 36.5561 -79.0750 54° Northeast 446 513 37,000  Level Washington Center
Tue 01:46:01 PM 36.6286 -78.9489 54° Northeast 441 507 37,000  Level Washington Center
Tue 01:47:02 PM 36.7111 -78.8306 49° Northeast 441 507 37,000 -344 Level Washington Center
Tue 01:48:03 PM 36.7994 -78.7253 44° Northeast 441 507 36,300 -793 Descending Washington Center
Tue 01:49:03 PM 36.8878 -78.6172 44° Northeast 436 502 35,400 -966 Descending Washington Center
Tue 01:50:01 PM 36.9717 -78.5164 44° Northeast 448 516 34,400 -712 Descending Washington Center
Tue 01:51:01 PM 37.0597 -78.4081 44° Northeast 448 516 34,000 -400 Descending Washington Center
Tue 01:52:01 PM 37.1519 -78.3019 43° Northeast 448 516 33,600 -793 Descending Washington Center
Tue 01:53:02 PM 37.2567 -78.1881 41° Northeast 448 516 32,400 -1,033 Descending Washington Center
Tue 01:54:03 PM 37.3506 -78.0817 42° Northeast 448 516 31,500 -706 Descending Washington Center
Tue 01:55:01 PM 37.4444 -77.9800 41° Northeast 448 516 31,000 -254 Descending Washington Center
Tue 01:56:01 PM 37.5425 -77.8706 41° Northeast 448 516 31,000  Level Washington Center
Tue 01:57:02 PM 37.6364 -77.7658 41° Northeast 448 516 31,000  Level Washington Center
Tue 01:58:02 PM 37.7300 -77.6583 42° Northeast 448 516 31,000  Level Washington Center
Tue 01:59:04 PM 37.8278 -77.5558 40° Northeast 448 516 31,000  Level Washington Center
Tue 02:00:01 PM 37.9292 -77.4608 36° Northeast 448 516 31,000  Level Washington Center
Tue 02:01:02 PM 38.0328 -77.3661 36° Northeast 448 516 31,000  Level Washington Center
Tue 02:02:03 PM 38.1342 -77.2786 34° Northeast 448 516 31,000  Level Washington Center
Tue 02:03:04 PM 38.2356 -77.1831 37° Northeast 448 516 31,000  Level Washington Center
Tue 02:04:01 PM 38.3369 -77.0900 36° Northeast 454 522 31,000 -305 Level Washington Center
Tue 02:05:02 PM 38.4381 -76.9967 36° Northeast 454 522 30,400 -1,488 Descending Washington Center
Tue 02:06:02 PM 38.5414 -76.9003 36° Northeast 454 522 28,000 -2,400 Descending Washington Center
Tue 02:07:02 PM 38.6403 -76.8064 37° Northeast 454 522 25,600 -1,983 Descending Washington Center
Tue 02:08:03 PM 38.7167 -76.6878 50° Northeast 428 493 24,000 -807 Descending Washington Center
Tue 02:09:01 PM 38.7492 -76.5339 75° East 428 493 24,000 -454 Level Washington Center
Tue 02:10:02 PM 38.7794 -76.3825 76° East 428 493 23,100 -1,426 Descending Washington Center
Tue 02:11:03 PM 38.8094 -76.2311 76° East 428 493 21,100 -2,168 Descending Washington Center
Tue 02:12:01 PM 38.8436 -76.0847 73° East 428 493 18,800 -2,218 Descending Washington Center
Tue 02:13:02 PM 38.8731 -75.9489 74° East 408 470 16,700 -1,884 Descending Washington Center
Tue 02:14:02 PM 38.9111 -75.8264 68° East 391 450 15,000 -1,240 Descending Washington Center
Tue 02:15:03 PM 38.9842 -75.7519 38° Northeast 338 389 14,200 -1,008 Descending Washington Center
Tue 02:16:01 PM 39.0614 -75.6825 35° Northeast 332 382 13,000 -1,294 Descending Washington Center
Tue 02:17:36 PM 39.2167 -75.6667 North 330 380 10,900 -1,078 Descending Philadelphia TRACON
Tue 02:18:48 PM 39.3000 -75.6333 17° North 289 333 10,000 -1,000 Descending Philadelphia TRACON
Tue 02:19:36 PM 39.3667 -75.5833 30° Northeast 285 328 8,900 -1,474 Descending Philadelphia TRACON
Tue 02:20:42 PM 39.4167 -75.5167 46° Northeast 278 320 7,200 -864 Descending Philadelphia TRACON
Tue 02:21:48 PM 39.4833 -75.4333 44° Northeast 265 305 7,000 -91 Descending Philadelphia TRACON
Tue 02:22:54 PM 39.5333 -75.3500 52° Northeast 273 314 7,000 -150 Level Philadelphia TRACON
Tue 02:23:48 PM 39.5833 -75.3333 14° North 273 314 6,700 -526 Descending Philadelphia TRACON
Tue 02:24:48 PM 39.6500 -75.3833 330° Northwest 253 291 6,000 -350 Descending Philadelphia TRACON
Tue 02:25:48 PM 39.7000 -75.4333 322° Northwest 210 242 6,000  Level Philadelphia TRACON
Tue 02:26:54 PM 39.7000 -75.5167 270° West 213 245 6,000  Level Philadelphia TRACON
Tue 02:27:42 PM 39.7167 -75.5667 293° West 217 250 6,000 -444 Level Philadelphia TRACON
Tue 02:28:42 PM 39.7333 -75.6333 288° West 192 221 5,200 -600 Descending Philadelphia TRACON
Tue 02:29:42 PM 39.7667 -75.6333 360° North 167 192 4,800 -571 Descending Philadelphia TRACON
Tue 02:30:48 PM 39.8000 -75.5833 49° Northeast 164 189 4,000 -429 Descending Philadelphia TRACON
Tue 02:31:48 PM 39.8167 -75.5333 67° East 165 190 3,900 -421 Descending Philadelphia TRACON
Tue 02:32:42 PM 39.8167 -75.4667 90° East 164 189 3,200 -864 Descending Philadelphia TRACON
Tue 02:34:00 PM 39.8333 -75.4000 72° East 164 189 2,000 -900 Descending Philadelphia TRACON
Tue 02:34:42 PM 39.8500 -75.3667 57° Northeast 153 176 1,400 -857 Descending Philadelphia TRACON

Login

Don't have an account? Register now (free) for customized features, flight alerts, and more!